Time;durP1;ratioP1;P1;durP2;ratioP2;P2;SDS_P1;SDS_P2;PMS_P1;PMS_P2;Temp;Humidity;BMP_temperature;BMP_pressure;BME280_temperature;BME280_humidity;BME280_pressure;Samples;Min_cycle;Max_cycle;Signal;HPM_P1;HPM_P2
2023/05/18 00:06:57;;;;;;;2.17;0.90;;;8.30;1.00;;;;;;20654361;28;20042;-41
2023/05/18 00:17:00;;;;;;;4.20;1.65;;;8.20;1.00;;;;;;20651242;28;20042;-40
2023/05/18 00:27:01;;;;;;;2.35;1.00;;;8.10;1.00;;;;;;20650983;28;20034;-41
2023/05/18 00:37:02;;;;;;;1.92;0.90;;;8.10;1.00;;;;;;20646131;28;20050;-41
2023/05/18 00:47:03;;;;;;;3.17;1.35;;;8.00;1.00;;;;;;20645898;28;20029;-40
2023/05/18 00:57:05;;;;;;;4.95;1.33;;;7.90;1.00;;;;;;20640975;28;20077;-41
2023/05/18 01:07:07;;;;;;;2.50;1.10;;;7.90;1.00;;;;;;20640469;28;20050;-41
2023/05/18 01:17:32;;;;;;;3.35;1.23;;;7.80;1.00;;;;;;20636592;28;20581;-41
2023/05/18 01:27:41;;;;;;;3.30;0.90;;;7.80;1.00;;;;;;20631146;28;20542;-41
2023/05/18 01:37:42;;;;;;;6.85;1.15;;;7.70;1.00;;;;;;20633347;28;20041;-41
2023/05/18 01:47:47;;;;;;;2.38;1.08;;;7.70;1.00;;;;;;20628986;28;20235;-41
2023/05/18 01:57:51;;;;;;;4.78;1.90;;;7.70;1.00;;;;;;20629076;28;20042;-43
2023/05/18 02:07:52;;;;;;;2.67;1.00;;;7.70;1.00;;;;;;20631962;28;20053;-43
2023/05/18 02:17:56;;;;;;;3.63;0.98;;;7.70;1.00;;;;;;20644105;28;20513;-44
2023/05/18 02:27:57;;;;;;;3.47;1.40;;;7.70;1.00;;;;;;20630182;28;20049;-44
2023/05/18 02:37:59;;;;;;;3.05;1.33;;;7.70;1.00;;;;;;20630540;28;20050;-44
2023/05/18 02:48:00;;;;;;;6.70;1.30;;;7.60;1.00;;;;;;20628871;28;20606;-43
2023/05/18 02:58:02;;;;;;;4.20;1.75;;;7.50;1.00;;;;;;20628447;28;20046;-43
2023/05/18 03:08:03;;;;;;;2.83;1.00;;;7.50;1.00;;;;;;20632729;28;20490;-44
2023/05/18 03:18:05;;;;;;;4.45;1.92;;;7.40;1.00;;;;;;20646588;28;20053;-43
2023/05/18 03:28:06;;;;;;;5.18;1.60;;;7.20;1.00;;;;;;20642378;28;20052;-44
2023/05/18 03:38:08;;;;;;;3.25;1.60;;;7.10;1.00;;;;;;20641012;28;20513;-44
2023/05/18 03:48:09;;;;;;;2.80;1.25;;;7.00;1.00;;;;;;20643252;28;20367;-44
2023/05/18 03:58:10;;;;;;;5.07;1.42;;;6.80;1.00;;;;;;20648286;28;20042;-44
2023/05/18 04:08:13;;;;;;;6.18;1.50;;;6.70;1.00;;;;;;20655681;28;20038;-44
2023/05/18 04:18:14;;;;;;;4.35;2.53;;;6.70;1.00;;;;;;20656814;28;20038;-44
2023/05/18 04:28:15;;;;;;;3.20;1.55;;;6.70;1.00;;;;;;20650069;28;20048;-44
2023/05/18 04:38:16;;;;;;;3.95;1.20;;;6.70;1.00;;;;;;20648950;28;20056;-44
2023/05/18 04:48:18;;;;;;;6.97;1.55;;;6.80;1.00;;;;;;20650678;28;20533;-44
2023/05/18 04:58:19;;;;;;;4.13;1.52;;;6.80;1.00;;;;;;20648767;28;20074;-44
2023/05/18 05:08:20;;;;;;;5.05;1.73;;;6.90;1.00;;;;;;20647945;28;20038;-44
2023/05/18 05:18:21;;;;;;;4.70;2.15;;;7.10;1.00;;;;;;20651442;28;20437;-44
2023/05/18 05:28:23;;;;;;;6.70;1.90;;;7.20;1.00;;;;;;20647607;28;20041;-44
2023/05/18 05:38:24;;;;;;;4.63;1.85;;;7.50;1.00;;;;;;20646128;28;20555;-43
2023/05/18 05:48:25;;;;;;;8.10;2.47;;;7.70;1.00;;;;;;20652551;28;20631;-44
2023/05/18 05:58:26;;;;;;;5.88;1.40;;;7.90;1.00;;;;;;20647830;28;20042;-43
2023/05/18 06:08:27;;;;;;;6.82;2.20;;;8.10;1.00;;;;;;20656615;28;20034;-44
2023/05/18 06:18:28;;;;;;;6.65;2.03;;;8.30;1.00;;;;;;20647361;28;20497;-44
2023/05/18 06:28:29;;;;;;;5.65;1.55;;;8.60;1.00;;;;;;20655254;28;20496;-44
2023/05/18 06:38:30;;;;;;;6.28;2.42;;;8.80;1.00;;;;;;20637654;28;20050;-44
2023/05/18 06:48:32;;;;;;;3.97;1.30;;;9.30;1.00;;;;;;20634155;28;20030;-44
2023/05/18 06:58:33;;;;;;;4.45;1.80;;;9.70;1.00;;;;;;20628268;28;20705;-43
2023/05/18 07:08:37;;;;;;;6.72;1.52;;;10.00;1.00;;;;;;20634142;28;20049;-44
2023/05/18 07:18:38;;;;;;;4.13;1.70;;;9.90;1.00;;;;;;20640003;28;20494;-45
2023/05/18 07:28:39;;;;;;;2.72;1.00;;;9.80;1.00;;;;;;20638262;28;20038;-44
2023/05/18 07:38:40;;;;;;;5.00;2.35;;;9.80;1.00;;;;;;20655932;28;20046;-44
2023/05/18 07:48:42;;;;;;;2.83;1.13;;;9.90;1.00;;;;;;20648938;28;20277;-44
2023/05/18 07:58:43;;;;;;;2.83;1.05;;;10.20;1.00;;;;;;20653700;28;20046;-44
2023/05/18 08:08:44;;;;;;;2.72;0.80;;;10.40;1.00;;;;;;20645749;28;20053;-45
2023/05/18 08:18:45;;;;;;;4.45;1.40;;;10.60;1.00;;;;;;20645672;28;20418;-44
2023/05/18 08:28:47;;;;;;;4.57;1.13;;;10.70;1.00;;;;;;20650758;28;20358;-44
2023/05/18 08:38:48;;;;;;;2.10;1.10;;;10.80;1.00;;;;;;20646004;28;20042;-44
2023/05/18 08:48:52;;;;;;;6.22;1.10;;;10.80;1.00;;;;;;20643106;28;20045;-44
2023/05/18 08:58:57;;;;;;;2.13;0.98;;;11.00;1.00;;;;;;20656334;28;20046;-44
2023/05/18 09:09:03;;;;;;;2.97;1.20;;;10.90;1.00;;;;;;20649462;28;20461;-44
2023/05/18 09:19:04;;;;;;;4.65;1.25;;;11.00;1.00;;;;;;20650734;28;20039;-45
2023/05/18 09:29:16;;;;;;;3.90;1.27;;;11.10;1.00;;;;;;20642843;28;20065;-44
2023/05/18 09:39:17;;;;;;;2.92;1.20;;;11.30;1.00;;;;;;20637424;28;20057;-44
2023/05/18 09:49:21;;;;;;;5.72;1.83;;;11.50;1.00;;;;;;20646408;28;20108;-44
2023/05/18 09:59:22;;;;;;;3.10;1.23;;;11.60;1.00;;;;;;20638573;28;20560;-44
2023/05/18 10:09:23;;;;;;;5.85;1.90;;;11.80;1.00;;;;;;20631872;28;20039;-44
2023/05/18 10:19:24;;;;;;;5.88;1.95;;;11.90;1.00;;;;;;20635226;28;20038;-45
2023/05/18 10:29:28;;;;;;;4.00;1.55;;;12.10;1.00;;;;;;20636027;28;20239;-45
2023/05/18 10:39:34;;;;;;;2.72;1.02;;;12.40;1.00;;;;;;20635961;28;20245;-44
2023/05/18 10:49:36;;;;;;;3.28;1.40;;;12.60;1.00;;;;;;20626441;28;20057;-44
2023/05/18 10:59:41;;;;;;;3.85;1.10;;;12.70;1.00;;;;;;20640189;28;20069;-45
2023/05/18 11:09:43;;;;;;;5.32;1.45;;;13.20;1.00;;;;;;20642786;28;20069;-44
2023/05/18 11:20:06;;;;;;;6.07;2.00;;;13.80;1.00;;;;;;20646770;28;20034;-44
2023/05/18 11:30:29;;;;;;;5.00;1.38;;;14.40;1.00;;;;;;20660986;28;20058;-44
2023/05/18 11:40:43;;;;;;;7.72;1.85;;;15.00;1.00;;;;;;20651460;28;20459;-43
2023/05/18 11:50:45;;;;;;;2.33;1.02;;;15.00;1.00;;;;;;20650592;28;20160;-44
2023/05/18 12:00:47;;;;;;;3.03;1.42;;;15.10;1.00;;;;;;20650364;28;20398;-44
2023/05/18 12:10:49;;;;;;;2.42;1.17;;;14.90;1.00;;;;;;20640995;28;20100;-44
2023/05/18 12:20:52;;;;;;;3.45;1.83;;;14.60;1.00;;;;;;20663650;28;20383;-44
2023/05/18 12:30:55;;;;;;;4.28;1.38;;;14.70;1.00;;;;;;20661382;28;20041;-44
2023/05/18 12:40:56;;;;;;;2.72;1.33;;;14.90;1.00;;;;;;20663877;28;20437;-44
2023/05/18 12:50:57;;;;;;;4.93;1.65;;;15.30;1.00;;;;;;20661327;28;20065;-45
2023/05/18 13:01:07;;;;;;;3.95;1.25;;;15.30;1.00;;;;;;20666247;28;20037;-43
2023/05/18 13:11:09;;;;;;;3.35;1.25;;;15.60;1.00;;;;;;20658418;28;20041;-45
2023/05/18 13:21:10;;;;;;;4.38;1.73;;;16.10;1.00;;;;;;20664798;28;20404;-44
2023/05/18 13:31:11;;;;;;;3.15;1.20;;;16.50;1.00;;;;;;20664090;28;20034;-42
2023/05/18 13:41:15;;;;;;;3.33;1.10;;;16.90;1.00;;;;;;20663979;28;20057;-42
2023/05/18 13:51:16;;;;;;;3.10;1.13;;;16.90;1.00;;;;;;20668483;28;20436;-43
2023/05/18 14:01:20;;;;;;;5.78;1.90;;;16.90;1.00;;;;;;20667195;28;20041;-42
2023/05/18 14:11:21;;;;;;;3.67;1.08;;;16.90;1.00;;;;;;20659717;28;20505;-43
2023/05/18 14:21:22;;;;;;;3.92;0.95;;;16.90;1.00;;;;;;20638329;28;20038;-43
2023/05/18 14:31:23;;;;;;;2.95;1.33;;;16.70;1.00;;;;;;20644441;28;20038;-43
2023/05/18 14:41:24;;;;;;;6.82;1.48;;;16.40;1.00;;;;;;20642986;28;20048;-43
2023/05/18 14:51:25;;;;;;;2.60;1.15;;;16.30;1.00;;;;;;20637938;28;20537;-43
2023/05/18 15:01:26;;;;;;;5.80;1.23;;;16.20;1.00;;;;;;20642883;28;20551;-43
2023/05/18 15:11:27;;;;;;;3.70;1.20;;;16.20;1.00;;;;;;20637112;28;20023;-43
2023/05/18 15:21:28;;;;;;;2.70;1.33;;;16.00;1.00;;;;;;20637985;28;20034;-43
2023/05/18 15:31:29;;;;;;;3.10;1.25;;;15.90;1.00;;;;;;20640734;28;20509;-44
2023/05/18 15:41:32;;;;;;;5.72;1.20;;;15.80;1.00;;;;;;20637543;28;20089;-43
2023/05/18 15:51:33;;;;;;;2.83;1.02;;;15.70;1.00;;;;;;20645980;28;20034;-44
2023/05/18 16:01:35;;;;;;;7.07;1.70;;;15.80;1.00;;;;;;20666490;28;20045;-44
2023/05/18 16:11:36;;;;;;;2.63;1.10;;;15.70;1.00;;;;;;20676457;28;20027;-43
2023/05/18 16:21:37;;;;;;;3.53;1.10;;;15.80;1.00;;;;;;20672020;28;20037;-43
2023/05/18 16:31:38;;;;;;;4.70;1.70;;;15.70;1.00;;;;;;20662666;28;20034;-43
2023/05/18 16:41:39;;;;;;;3.58;1.10;;;15.70;1.00;;;;;;20661552;28;20514;-43
2023/05/18 16:51:41;;;;;;;3.33;1.30;;;15.60;1.00;;;;;;20648883;28;20038;-44
2023/05/18 17:01:42;;;;;;;4.47;1.38;;;15.60;1.00;;;;;;20659140;28;20049;-43
2023/05/18 17:11:43;;;;;;;2.28;0.98;;;15.50;1.00;;;;;;20662765;28;20037;-43
2023/05/18 17:21:44;;;;;;;2.53;1.13;;;15.50;1.00;;;;;;20659001;28;20030;-43
2023/05/18 17:31:45;;;;;;;2.47;1.10;;;15.40;1.00;;;;;;20662103;28;20035;-43
2023/05/18 17:41:46;;;;;;;4.85;1.55;;;15.30;1.00;;;;;;20663576;28;20048;-43
2023/05/18 17:51:47;;;;;;;5.38;1.27;;;15.20;1.00;;;;;;20664825;28;20034;-44
2023/05/18 18:01:48;;;;;;;3.00;1.20;;;15.20;1.00;;;;;;20656369;28;20038;-44
2023/05/18 18:11:49;;;;;;;3.15;1.15;;;15.10;1.00;;;;;;20658615;28;20034;-43
2023/05/18 18:21:50;;;;;;;4.45;1.70;;;14.90;1.00;;;;;;20649937;28;20064;-43
2023/05/18 18:31:51;;;;;;;3.67;1.48;;;14.70;1.00;;;;;;20645149;28;20031;-44
2023/05/18 18:41:52;;;;;;;3.75;1.30;;;14.60;1.00;;;;;;20630513;28;20054;-44
2023/05/18 18:51:53;;;;;;;3.00;1.48;;;14.40;1.00;;;;;;20641809;28;20034;-43
2023/05/18 19:01:54;;;;;;;3.75;1.60;;;14.20;1.00;;;;;;20649645;28;20045;-40
2023/05/18 19:11:55;;;;;;;4.65;1.08;;;14.00;1.00;;;;;;20639812;28;20624;-40
2023/05/18 19:21:56;;;;;;;2.60;1.10;;;13.90;1.00;;;;;;20635796;28;20527;-41
2023/05/18 19:31:57;;;;;;;3.00;1.48;;;13.80;1.00;;;;;;20641018;28;21802;-40
2023/05/18 19:41:58;;;;;;;7.55;1.50;;;13.60;1.00;;;;;;20646174;28;20053;-40
2023/05/18 19:51:59;;;;;;;5.10;1.83;;;13.40;1.00;;;;;;20643696;28;20042;-40
2023/05/18 20:02:03;;;;;;;5.00;2.55;;;13.10;1.00;;;;;;20652642;28;20039;-40
2023/05/18 20:12:05;;;;;;;3.90;1.27;;;13.00;1.00;;;;;;20640297;28;20050;-40
2023/05/18 20:22:09;;;;;;;6.47;2.13;;;12.80;1.00;;;;;;20643212;28;20042;-41
2023/05/18 20:32:10;;;;;;;2.80;1.25;;;12.60;1.00;;;;;;20647486;28;20050;-41
2023/05/18 20:42:13;;;;;;;3.88;1.42;;;12.60;1.00;;;;;;20646112;28;20054;-40
2023/05/18 20:52:14;;;;;;;7.35;1.70;;;12.60;1.00;;;;;;20638613;28;20441;-41
2023/05/18 21:02:16;;;;;;;4.82;1.50;;;12.50;1.00;;;;;;20642600;28;20038;-41
2023/05/18 21:12:17;;;;;;;5.63;1.92;;;12.40;1.00;;;;;;20649557;28;20281;-41
2023/05/18 21:22:19;;;;;;;4.53;1.98;;;12.20;1.00;;;;;;20666077;28;20042;-41
2023/05/18 21:32:21;;;;;;;7.47;2.05;;;12.10;1.00;;;;;;20658587;28;20045;-39
2023/05/18 21:42:22;;;;;;;6.50;2.15;;;11.90;1.00;;;;;;20638260;28;20048;-41
2023/05/18 21:52:23;;;;;;;6.28;1.95;;;11.70;1.00;;;;;;20640450;28;20042;-40
2023/05/18 22:02:24;;;;;;;5.00;1.25;;;11.50;1.00;;;;;;20647057;28;20057;-40
2023/05/18 22:12:25;;;;;;;3.63;1.60;;;11.30;1.00;;;;;;20641338;28;20043;-41
2023/05/18 22:22:26;;;;;;;4.35;1.27;;;11.30;1.00;;;;;;20638946;28;20049;-41
2023/05/18 22:32:27;;;;;;;4.72;2.17;;;11.20;1.00;;;;;;20653915;28;20049;-41
2023/05/18 22:42:28;;;;;;;9.00;1.92;;;11.00;1.00;;;;;;20648441;28;20053;-41
2023/05/18 22:52:31;;;;;;;3.83;1.40;;;10.90;1.00;;;;;;20638119;28;20488;-41
2023/05/18 23:02:32;;;;;;;5.88;2.15;;;10.70;1.00;;;;;;20651266;28;20041;-41
2023/05/18 23:12:33;;;;;;;5.43;1.52;;;10.60;1.00;;;;;;20660282;28;20478;-42
2023/05/18 23:22:34;;;;;;;7.72;1.98;;;10.50;1.00;;;;;;20661206;28;20049;-41
2023/05/18 23:32:35;;;;;;;6.97;1.85;;;10.50;1.00;;;;;;20659494;28;20034;-41
2023/05/18 23:42:37;;;;;;;5.53;1.55;;;10.30;1.00;;;;;;20657011;28;20042;-41
2023/05/18 23:52:39;;;;;;;11.55;2.78;;;10.20;1.00;;;;;;20653850;28;20034;-41
